sensor_id;sensor_type;location;lat;lon;timestamp;P1;durP1;ratioP1;P2;durP2;ratioP2
35245;SDS011;21379;50.962;6.960;2022-08-25T00:02:03;2.97;;;1.00;;
35245;SDS011;21379;50.962;6.960;2022-08-25T00:04:32;3.22;;;1.40;;
35245;SDS011;21379;50.962;6.960;2022-08-25T00:07:00;1.88;;;1.27;;
35245;SDS011;21379;50.962;6.960;2022-08-25T00:09:28;1.38;;;1.17;;
35245;SDS011;21379;50.962;6.960;2022-08-25T00:11:56;3.05;;;1.23;;
35245;SDS011;21379;50.962;6.960;2022-08-25T00:14:24;1.80;;;1.33;;
35245;SDS011;21379;50.962;6.960;2022-08-25T00:16:54;2.58;;;1.70;;
35245;SDS011;21379;50.962;6.960;2022-08-25T00:19:25;3.47;;;1.20;;
35245;SDS011;21379;50.962;6.960;2022-08-25T00:21:56;3.30;;;1.65;;
35245;SDS011;21379;50.962;6.960;2022-08-25T00:24:23;4.70;;;1.52;;
35245;SDS011;21379;50.962;6.960;2022-08-25T00:26:51;1.67;;;1.42;;
35245;SDS011;21379;50.962;6.960;2022-08-25T00:29:20;3.95;;;1.60;;
35245;SDS011;21379;50.962;6.960;2022-08-25T00:31:49;2.30;;;1.20;;
35245;SDS011;21379;50.962;6.960;2022-08-25T00:34:20;1.98;;;1.25;;
35245;SDS011;21379;50.962;6.960;2022-08-25T00:36:49;2.75;;;1.48;;
35245;SDS011;21379;50.962;6.960;2022-08-25T00:39:16;3.30;;;1.40;;
35245;SDS011;21379;50.962;6.960;2022-08-25T00:41:45;3.70;;;1.35;;
35245;SDS011;21379;50.962;6.960;2022-08-25T00:44:13;6.70;;;1.30;;
35245;SDS011;21379;50.962;6.960;2022-08-25T00:46:44;3.47;;;1.30;;
35245;SDS011;21379;50.962;6.960;2022-08-25T00:49:15;1.88;;;1.40;;
35245;SDS011;21379;50.962;6.960;2022-08-25T00:51:47;1.85;;;1.20;;
35245;SDS011;21379;50.962;6.960;2022-08-25T00:54:18;4.40;;;1.50;;
35245;SDS011;21379;50.962;6.960;2022-08-25T00:56:48;3.30;;;1.67;;
35245;SDS011;21379;50.962;6.960;2022-08-25T00:59:16;2.67;;;1.50;;
35245;SDS011;21379;50.962;6.960;2022-08-25T01:01:45;4.03;;;1.48;;
35245;SDS011;21379;50.962;6.960;2022-08-25T01:04:12;1.75;;;1.48;;
35245;SDS011;21379;50.962;6.960;2022-08-25T01:06:40;1.55;;;1.33;;
35245;SDS011;21379;50.962;6.960;2022-08-25T01:09:10;1.88;;;1.55;;
35245;SDS011;21379;50.962;6.960;2022-08-25T01:11:39;3.03;;;1.88;;
35245;SDS011;21379;50.962;6.960;2022-08-25T01:14:07;1.27;;;1.10;;
35245;SDS011;21379;50.962;6.960;2022-08-25T01:16:35;2.30;;;1.38;;
35245;SDS011;21379;50.962;6.960;2022-08-25T01:19:04;5.97;;;2.00;;
35245;SDS011;21379;50.962;6.960;2022-08-25T01:21:38;1.75;;;1.42;;
35245;SDS011;21379;50.962;6.960;2022-08-25T01:24:06;2.72;;;1.55;;
35245;SDS011;21379;50.962;6.960;2022-08-25T01:26:36;3.33;;;1.67;;
35245;SDS011;21379;50.962;6.960;2022-08-25T01:29:04;2.35;;;1.52;;
35245;SDS011;21379;50.962;6.960;2022-08-25T01:31:51;2.60;;;1.10;;
35245;SDS011;21379;50.962;6.960;2022-08-25T01:34:24;3.75;;;1.33;;
35245;SDS011;21379;50.962;6.960;2022-08-25T01:36:53;3.92;;;1.40;;
35245;SDS011;21379;50.962;6.960;2022-08-25T01:39:21;1.67;;;1.40;;
35245;SDS011;21379;50.962;6.960;2022-08-25T01:41:53;2.70;;;1.35;;
35245;SDS011;21379;50.962;6.960;2022-08-25T01:44:29;5.50;;;1.40;;
35245;SDS011;21379;50.962;6.960;2022-08-25T01:46:57;2.90;;;1.40;;
35245;SDS011;21379;50.962;6.960;2022-08-25T01:49:24;4.25;;;1.83;;
35245;SDS011;21379;50.962;6.960;2022-08-25T01:51:51;3.33;;;1.70;;
35245;SDS011;21379;50.962;6.960;2022-08-25T01:54:21;3.85;;;1.48;;
35245;SDS011;21379;50.962;6.960;2022-08-25T01:56:48;2.90;;;1.50;;
35245;SDS011;21379;50.962;6.960;2022-08-25T01:59:15;4.55;;;1.17;;
35245;SDS011;21379;50.962;6.960;2022-08-25T02:01:43;9.20;;;1.50;;
35245;SDS011;21379;50.962;6.960;2022-08-25T02:04:10;1.52;;;1.30;;
35245;SDS011;21379;50.962;6.960;2022-08-25T02:06:37;1.98;;;1.30;;
35245;SDS011;21379;50.962;6.960;2022-08-25T02:09:07;4.88;;;1.60;;
35245;SDS011;21379;50.962;6.960;2022-08-25T02:11:35;2.45;;;1.50;;
35245;SDS011;21379;50.962;6.960;2022-08-25T02:14:04;10.35;;;2.17;;
35245;SDS011;21379;50.962;6.960;2022-08-25T02:16:33;3.58;;;2.22;;
35245;SDS011;21379;50.962;6.960;2022-08-25T02:19:02;2.42;;;1.70;;
35245;SDS011;21379;50.962;6.960;2022-08-25T02:21:30;5.30;;;1.88;;
35245;SDS011;21379;50.962;6.960;2022-08-25T02:23:57;1.63;;;1.52;;
35245;SDS011;21379;50.962;6.960;2022-08-25T02:26:26;7.28;;;1.55;;
35245;SDS011;21379;50.962;6.960;2022-08-25T02:28:53;2.20;;;1.48;;
35245;SDS011;21379;50.962;6.960;2022-08-25T02:31:21;4.00;;;1.70;;
35245;SDS011;21379;50.962;6.960;2022-08-25T02:33:50;5.63;;;1.40;;
35245;SDS011;21379;50.962;6.960;2022-08-25T02:36:17;2.92;;;1.73;;
35245;SDS011;21379;50.962;6.960;2022-08-25T02:38:44;3.10;;;1.40;;
35245;SDS011;21379;50.962;6.960;2022-08-25T02:41:13;5.95;;;1.38;;
35245;SDS011;21379;50.962;6.960;2022-08-25T02:43:45;3.63;;;1.60;;
35245;SDS011;21379;50.962;6.960;2022-08-25T02:46:13;1.77;;;1.38;;
35245;SDS011;21379;50.962;6.960;2022-08-25T02:48:41;4.97;;;1.63;;
35245;SDS011;21379;50.962;6.960;2022-08-25T02:51:08;3.40;;;1.70;;
35245;SDS011;21379;50.962;6.960;2022-08-25T02:53:36;6.85;;;1.83;;
35245;SDS011;21379;50.962;6.960;2022-08-25T02:56:05;1.35;;;1.23;;
35245;SDS011;21379;50.962;6.960;2022-08-25T02:58:32;2.75;;;1.30;;
35245;SDS011;21379;50.962;6.960;2022-08-25T03:01:01;3.42;;;2.13;;
35245;SDS011;21379;50.962;6.960;2022-08-25T03:03:28;3.75;;;1.60;;
35245;SDS011;21379;50.962;6.960;2022-08-25T03:05:55;7.55;;;1.85;;
35245;SDS011;21379;50.962;6.960;2022-08-25T03:08:22;2.30;;;1.60;;
35245;SDS011;21379;50.962;6.960;2022-08-25T03:10:49;1.85;;;1.40;;
35245;SDS011;21379;50.962;6.960;2022-08-25T03:13:17;2.45;;;1.52;;
35245;SDS011;21379;50.962;6.960;2022-08-25T03:15:44;4.53;;;1.77;;
35245;SDS011;21379;50.962;6.960;2022-08-25T03:18:13;3.78;;;1.92;;
35245;SDS011;21379;50.962;6.960;2022-08-25T03:20:40;2.75;;;1.80;;
35245;SDS011;21379;50.962;6.960;2022-08-25T03:23:07;4.13;;;1.65;;
35245;SDS011;21379;50.962;6.960;2022-08-25T03:25:34;2.45;;;1.85;;
35245;SDS011;21379;50.962;6.960;2022-08-25T03:28:18;6.47;;;1.65;;
35245;SDS011;21379;50.962;6.960;2022-08-25T03:30:45;4.15;;;2.20;;
35245;SDS011;21379;50.962;6.960;2022-08-25T03:33:14;4.13;;;2.00;;
35245;SDS011;21379;50.962;6.960;2022-08-25T03:35:41;3.38;;;2.03;;
35245;SDS011;21379;50.962;6.960;2022-08-25T03:38:08;10.20;;;2.55;;
35245;SDS011;21379;50.962;6.960;2022-08-25T03:40:35;4.10;;;1.70;;
35245;SDS011;21379;50.962;6.960;2022-08-25T03:43:03;6.53;;;1.92;;
35245;SDS011;21379;50.962;6.960;2022-08-25T03:45:30;2.28;;;1.95;;
35245;SDS011;21379;50.962;6.960;2022-08-25T03:47:57;3.85;;;2.10;;
35245;SDS011;21379;50.962;6.960;2022-08-25T03:50:25;2.80;;;1.55;;
35245;SDS011;21379;50.962;6.960;2022-08-25T03:52:52;2.67;;;1.75;;
35245;SDS011;21379;50.962;6.960;2022-08-25T03:55:21;4.53;;;1.88;;
35245;SDS011;21379;50.962;6.960;2022-08-25T03:57:50;4.60;;;2.17;;
35245;SDS011;21379;50.962;6.960;2022-08-25T04:00:18;5.95;;;1.85;;
35245;SDS011;21379;50.962;6.960;2022-08-25T04:02:45;4.10;;;1.90;;
35245;SDS011;21379;50.962;6.960;2022-08-25T04:05:12;5.10;;;1.60;;
35245;SDS011;21379;50.962;6.960;2022-08-25T04:07:41;4.47;;;1.60;;
35245;SDS011;21379;50.962;6.960;2022-08-25T04:10:09;4.60;;;2.05;;
35245;SDS011;21379;50.962;6.960;2022-08-25T04:12:36;2.13;;;1.73;;
35245;SDS011;21379;50.962;6.960;2022-08-25T04:15:04;3.13;;;1.98;;
35245;SDS011;21379;50.962;6.960;2022-08-25T04:17:33;2.13;;;1.55;;
35245;SDS011;21379;50.962;6.960;2022-08-25T04:20:02;2.85;;;1.92;;
35245;SDS011;21379;50.962;6.960;2022-08-25T04:22:30;2.80;;;1.55;;
35245;SDS011;21379;50.962;6.960;2022-08-25T04:24:59;2.67;;;1.80;;
35245;SDS011;21379;50.962;6.960;2022-08-25T04:27:26;3.58;;;2.28;;
35245;SDS011;21379;50.962;6.960;2022-08-25T04:29:53;19.67;;;2.90;;
35245;SDS011;21379;50.962;6.960;2022-08-25T04:32:20;8.80;;;2.10;;
35245;SDS011;21379;50.962;6.960;2022-08-25T04:34:46;6.47;;;2.40;;
35245;SDS011;21379;50.962;6.960;2022-08-25T04:37:14;3.97;;;2.25;;
35245;SDS011;21379;50.962;6.960;2022-08-25T04:39:40;4.90;;;2.55;;
35245;SDS011;21379;50.962;6.960;2022-08-25T04:42:09;3.22;;;2.05;;
35245;SDS011;21379;50.962;6.960;2022-08-25T04:44:36;3.42;;;2.33;;
35245;SDS011;21379;50.962;6.960;2022-08-25T04:47:03;5.22;;;1.85;;
35245;SDS011;21379;50.962;6.960;2022-08-25T04:49:30;4.93;;;1.67;;
35245;SDS011;21379;50.962;6.960;2022-08-25T04:51:57;4.07;;;2.20;;
35245;SDS011;21379;50.962;6.960;2022-08-25T04:54:24;4.70;;;2.35;;
35245;SDS011;21379;50.962;6.960;2022-08-25T04:56:52;4.57;;;2.20;;
35245;SDS011;21379;50.962;6.960;2022-08-25T04:59:20;3.42;;;2.10;;
35245;SDS011;21379;50.962;6.960;2022-08-25T05:01:47;3.85;;;2.00;;
35245;SDS011;21379;50.962;6.960;2022-08-25T05:04:15;2.80;;;2.08;;
35245;SDS011;21379;50.962;6.960;2022-08-25T05:06:45;3.05;;;2.03;;
35245;SDS011;21379;50.962;6.960;2022-08-25T05:09:11;6.18;;;2.60;;
35245;SDS011;21379;50.962;6.960;2022-08-25T05:11:38;4.50;;;2.28;;
35245;SDS011;21379;50.962;6.960;2022-08-25T05:14:06;5.93;;;2.38;;
35245;SDS011;21379;50.962;6.960;2022-08-25T05:16:37;7.10;;;2.83;;
35245;SDS011;21379;50.962;6.960;2022-08-25T05:19:04;2.83;;;1.77;;
35245;SDS011;21379;50.962;6.960;2022-08-25T05:21:35;2.85;;;1.85;;
35245;SDS011;21379;50.962;6.960;2022-08-25T05:24:02;2.25;;;1.70;;
35245;SDS011;21379;50.962;6.960;2022-08-25T05:26:30;3.90;;;2.20;;
35245;SDS011;21379;50.962;6.960;2022-08-25T05:28:59;3.00;;;2.65;;
35245;SDS011;21379;50.962;6.960;2022-08-25T05:31:28;6.57;;;2.72;;
35245;SDS011;21379;50.962;6.960;2022-08-25T05:34:05;2.42;;;2.15;;
35245;SDS011;21379;50.962;6.960;2022-08-25T05:36:33;7.00;;;2.25;;
35245;SDS011;21379;50.962;6.960;2022-08-25T05:39:00;3.60;;;2.00;;
35245;SDS011;21379;50.962;6.960;2022-08-25T05:41:28;4.07;;;2.50;;
35245;SDS011;21379;50.962;6.960;2022-08-25T05:43:56;4.22;;;2.10;;
35245;SDS011;21379;50.962;6.960;2022-08-25T05:46:23;4.07;;;2.25;;
35245;SDS011;21379;50.962;6.960;2022-08-25T05:48:50;2.72;;;1.73;;
35245;SDS011;21379;50.962;6.960;2022-08-25T05:51:19;5.25;;;2.33;;
35245;SDS011;21379;50.962;6.960;2022-08-25T05:53:47;8.98;;;2.67;;
35245;SDS011;21379;50.962;6.960;2022-08-25T05:56:15;3.65;;;2.30;;
35245;SDS011;21379;50.962;6.960;2022-08-25T05:58:43;6.53;;;2.15;;
35245;SDS011;21379;50.962;6.960;2022-08-25T06:01:17;3.70;;;2.22;;
35245;SDS011;21379;50.962;6.960;2022-08-25T06:04:07;5.85;;;2.53;;
35245;SDS011;21379;50.962;6.960;2022-08-25T06:06:37;2.80;;;2.08;;
35245;SDS011;21379;50.962;6.960;2022-08-25T06:09:04;5.35;;;2.55;;
35245;SDS011;21379;50.962;6.960;2022-08-25T06:11:33;3.85;;;2.58;;
35245;SDS011;21379;50.962;6.960;2022-08-25T06:14:01;3.88;;;2.05;;
35245;SDS011;21379;50.962;6.960;2022-08-25T06:16:28;5.22;;;2.45;;
35245;SDS011;21379;50.962;6.960;2022-08-25T06:18:55;3.75;;;2.28;;
35245;SDS011;21379;50.962;6.960;2022-08-25T06:21:22;3.58;;;2.42;;
35245;SDS011;21379;50.962;6.960;2022-08-25T06:23:50;4.70;;;2.28;;
35245;SDS011;21379;50.962;6.960;2022-08-25T06:26:17;5.93;;;2.55;;
35245;SDS011;21379;50.962;6.960;2022-08-25T06:28:44;6.70;;;2.22;;
35245;SDS011;21379;50.962;6.960;2022-08-25T06:31:11;7.45;;;2.80;;
35245;SDS011;21379;50.962;6.960;2022-08-25T06:33:38;5.50;;;2.42;;
35245;SDS011;21379;50.962;6.960;2022-08-25T06:36:05;3.92;;;2.65;;
35245;SDS011;21379;50.962;6.960;2022-08-25T06:38:32;4.30;;;2.72;;
35245;SDS011;21379;50.962;6.960;2022-08-25T06:41:01;6.53;;;2.58;;
35245;SDS011;21379;50.962;6.960;2022-08-25T06:43:28;4.35;;;2.42;;
35245;SDS011;21379;50.962;6.960;2022-08-25T06:45:57;3.28;;;1.95;;
35245;SDS011;21379;50.962;6.960;2022-08-25T06:48:24;3.65;;;2.33;;
35245;SDS011;21379;50.962;6.960;2022-08-25T06:50:51;5.30;;;2.45;;
35245;SDS011;21379;50.962;6.960;2022-08-25T06:53:18;3.95;;;2.22;;
35245;SDS011;21379;50.962;6.960;2022-08-25T06:55:45;5.43;;;3.40;;
35245;SDS011;21379;50.962;6.960;2022-08-25T06:58:23;3.95;;;2.15;;
35245;SDS011;21379;50.962;6.960;2022-08-25T07:00:50;4.03;;;2.17;;
35245;SDS011;21379;50.962;6.960;2022-08-25T07:03:17;3.65;;;2.00;;
35245;SDS011;21379;50.962;6.960;2022-08-25T07:05:49;8.45;;;3.00;;
35245;SDS011;21379;50.962;6.960;2022-08-25T07:08:16;5.20;;;2.60;;
35245;SDS011;21379;50.962;6.960;2022-08-25T07:10:44;5.68;;;2.50;;
35245;SDS011;21379;50.962;6.960;2022-08-25T07:13:11;5.43;;;2.00;;
35245;SDS011;21379;50.962;6.960;2022-08-25T07:15:40;6.18;;;2.22;;
35245;SDS011;21379;50.962;6.960;2022-08-25T07:18:09;3.85;;;2.53;;
35245;SDS011;21379;50.962;6.960;2022-08-25T07:20:36;4.07;;;2.55;;
35245;SDS011;21379;50.962;6.960;2022-08-25T07:23:04;4.00;;;2.30;;
35245;SDS011;21379;50.962;6.960;2022-08-25T07:25:31;3.22;;;2.03;;
35245;SDS011;21379;50.962;6.960;2022-08-25T07:27:58;4.18;;;2.30;;
35245;SDS011;21379;50.962;6.960;2022-08-25T07:30:25;4.10;;;2.53;;
35245;SDS011;21379;50.962;6.960;2022-08-25T07:32:54;6.63;;;2.70;;
35245;SDS011;21379;50.962;6.960;2022-08-25T07:35:21;15.90;;;2.90;;
35245;SDS011;21379;50.962;6.960;2022-08-25T07:37:50;3.03;;;2.00;;
35245;SDS011;21379;50.962;6.960;2022-08-25T07:40:21;6.18;;;2.50;;
35245;SDS011;21379;50.962;6.960;2022-08-25T07:42:50;4.00;;;2.95;;
35245;SDS011;21379;50.962;6.960;2022-08-25T07:45:18;10.05;;;2.42;;
35245;SDS011;21379;50.962;6.960;2022-08-25T07:47:49;3.70;;;2.60;;
35245;SDS011;21379;50.962;6.960;2022-08-25T07:50:19;7.97;;;3.00;;
35245;SDS011;21379;50.962;6.960;2022-08-25T07:52:46;3.80;;;2.63;;
35245;SDS011;21379;50.962;6.960;2022-08-25T07:55:13;3.75;;;2.45;;
35245;SDS011;21379;50.962;6.960;2022-08-25T07:57:40;3.53;;;2.30;;
35245;SDS011;21379;50.962;6.960;2022-08-25T08:00:08;2.85;;;2.25;;
35245;SDS011;21379;50.962;6.960;2022-08-25T08:02:36;4.38;;;2.28;;
35245;SDS011;21379;50.962;6.960;2022-08-25T08:05:03;2.85;;;2.10;;
35245;SDS011;21379;50.962;6.960;2022-08-25T08:07:32;3.45;;;2.15;;
35245;SDS011;21379;50.962;6.960;2022-08-25T08:09:59;2.60;;;2.00;;
35245;SDS011;21379;50.962;6.960;2022-08-25T08:12:27;2.47;;;1.88;;
35245;SDS011;21379;50.962;6.960;2022-08-25T08:14:54;3.58;;;2.33;;
35245;SDS011;21379;50.962;6.960;2022-08-25T08:17:21;6.13;;;2.00;;
35245;SDS011;21379;50.962;6.960;2022-08-25T08:19:48;3.10;;;2.08;;
35245;SDS011;21379;50.962;6.960;2022-08-25T08:22:16;2.22;;;1.85;;
35245;SDS011;21379;50.962;6.960;2022-08-25T08:24:44;4.22;;;2.13;;
35245;SDS011;21379;50.962;6.960;2022-08-25T08:27:12;4.63;;;2.33;;
35245;SDS011;21379;50.962;6.960;2022-08-25T08:29:40;4.00;;;2.40;;
35245;SDS011;21379;50.962;6.960;2022-08-25T08:32:08;2.25;;;1.98;;
35245;SDS011;21379;50.962;6.960;2022-08-25T08:34:37;4.53;;;2.17;;
35245;SDS011;21379;50.962;6.960;2022-08-25T08:37:06;6.82;;;2.20;;
35245;SDS011;21379;50.962;6.960;2022-08-25T08:39:33;2.78;;;1.70;;
35245;SDS011;21379;50.962;6.960;2022-08-25T08:42:05;8.10;;;2.40;;
35245;SDS011;21379;50.962;6.960;2022-08-25T08:44:45;3.88;;;1.77;;
35245;SDS011;21379;50.962;6.960;2022-08-25T08:47:25;4.88;;;2.75;;
35245;SDS011;21379;50.962;6.960;2022-08-25T08:49:59;2.95;;;1.83;;
35245;SDS011;21379;50.962;6.960;2022-08-25T08:52:34;4.65;;;2.95;;
35245;SDS011;21379;50.962;6.960;2022-08-25T08:55:08;5.05;;;2.90;;
35245;SDS011;21379;50.962;6.960;2022-08-25T08:57:50;5.93;;;2.00;;
35245;SDS011;21379;50.962;6.960;2022-08-25T09:00:20;5.10;;;2.58;;
35245;SDS011;21379;50.962;6.960;2022-08-25T09:02:49;2.53;;;2.00;;
35245;SDS011;21379;50.962;6.960;2022-08-25T09:05:21;2.35;;;1.77;;
35245;SDS011;21379;50.962;6.960;2022-08-25T09:07:53;3.15;;;1.88;;
35245;SDS011;21379;50.962;6.960;2022-08-25T09:10:22;4.10;;;1.95;;
35245;SDS011;21379;50.962;6.960;2022-08-25T09:12:56;4.88;;;1.92;;
35245;SDS011;21379;50.962;6.960;2022-08-25T09:15:32;4.65;;;2.08;;
35245;SDS011;21379;50.962;6.960;2022-08-25T09:18:27;4.43;;;2.30;;
35245;SDS011;21379;50.962;6.960;2022-08-25T09:21:05;2.70;;;1.85;;
35245;SDS011;21379;50.962;6.960;2022-08-25T09:23:43;5.03;;;1.90;;
35245;SDS011;21379;50.962;6.960;2022-08-25T09:26:31;1.80;;;1.63;;
35245;SDS011;21379;50.962;6.960;2022-08-25T09:29:03;3.13;;;2.25;;
35245;SDS011;21379;50.962;6.960;2022-08-25T09:31:34;3.67;;;2.17;;
35245;SDS011;21379;50.962;6.960;2022-08-25T09:34:03;3.28;;;2.00;;
35245;SDS011;21379;50.962;6.960;2022-08-25T09:36:31;6.88;;;2.28;;
35245;SDS011;21379;50.962;6.960;2022-08-25T09:38:59;3.50;;;2.40;;
35245;SDS011;21379;50.962;6.960;2022-08-25T09:41:40;3.28;;;2.17;;
35245;SDS011;21379;50.962;6.960;2022-08-25T09:44:17;3.15;;;2.17;;
35245;SDS011;21379;50.962;6.960;2022-08-25T09:46:53;1.90;;;1.70;;
35245;SDS011;21379;50.962;6.960;2022-08-25T09:49:29;3.88;;;2.28;;
35245;SDS011;21379;50.962;6.960;2022-08-25T09:54:49;3.25;;;2.17;;
35245;SDS011;21379;50.962;6.960;2022-08-25T09:57:30;2.50;;;1.48;;
35245;SDS011;21379;50.962;6.960;2022-08-25T10:00:11;3.80;;;2.58;;
35245;SDS011;21379;50.962;6.960;2022-08-25T10:02:41;3.65;;;1.80;;
35245;SDS011;21379;50.962;6.960;2022-08-25T10:05:19;3.95;;;1.83;;
35245;SDS011;21379;50.962;6.960;2022-08-25T10:07:49;5.32;;;2.47;;
35245;SDS011;21379;50.962;6.960;2022-08-25T10:10:24;4.60;;;1.92;;
35245;SDS011;21379;50.962;6.960;2022-08-25T10:12:54;4.38;;;1.92;;
35245;SDS011;21379;50.962;6.960;2022-08-25T10:15:27;1.83;;;1.55;;
35245;SDS011;21379;50.962;6.960;2022-08-25T10:18:15;8.32;;;2.08;;
35245;SDS011;21379;50.962;6.960;2022-08-25T10:23:30;2.40;;;1.95;;
35245;SDS011;21379;50.962;6.960;2022-08-25T10:26:00;2.67;;;1.98;;
35245;SDS011;21379;50.962;6.960;2022-08-25T10:28:31;5.38;;;1.92;;
35245;SDS011;21379;50.962;6.960;2022-08-25T10:31:11;3.78;;;2.13;;
35245;SDS011;21379;50.962;6.960;2022-08-25T10:33:48;5.82;;;1.70;;
35245;SDS011;21379;50.962;6.960;2022-08-25T10:36:26;3.05;;;2.08;;
35245;SDS011;21379;50.962;6.960;2022-08-25T10:39:02;2.88;;;2.00;;
35245;SDS011;21379;50.962;6.960;2022-08-25T10:41:33;6.25;;;1.48;;
35245;SDS011;21379;50.962;6.960;2022-08-25T10:44:14;2.05;;;1.85;;
35245;SDS011;21379;50.962;6.960;2022-08-25T10:47:10;2.40;;;1.70;;
35245;SDS011;21379;50.962;6.960;2022-08-25T10:50:00;3.83;;;2.08;;
35245;SDS011;21379;50.962;6.960;2022-08-25T10:52:35;3.38;;;1.85;;
35245;SDS011;21379;50.962;6.960;2022-08-25T10:55:05;1.95;;;1.63;;
35245;SDS011;21379;50.962;6.960;2022-08-25T10:57:38;2.35;;;1.83;;
35245;SDS011;21379;50.962;6.960;2022-08-25T11:00:13;2.38;;;1.80;;
35245;SDS011;21379;50.962;6.960;2022-08-25T11:02:51;5.13;;;2.17;;
35245;SDS011;21379;50.962;6.960;2022-08-25T11:05:44;3.63;;;1.88;;
35245;SDS011;21379;50.962;6.960;2022-08-25T11:08:15;2.90;;;2.13;;
35245;SDS011;21379;50.962;6.960;2022-08-25T11:10:51;4.85;;;2.05;;
35245;SDS011;21379;50.962;6.960;2022-08-25T11:13:23;3.97;;;2.10;;
35245;SDS011;21379;50.962;6.960;2022-08-25T11:15:57;3.00;;;2.08;;
35245;SDS011;21379;50.962;6.960;2022-08-25T11:18:30;4.20;;;1.73;;
35245;SDS011;21379;50.962;6.960;2022-08-25T11:21:00;3.17;;;2.17;;
35245;SDS011;21379;50.962;6.960;2022-08-25T11:23:32;2.33;;;1.77;;
35245;SDS011;21379;50.962;6.960;2022-08-25T11:26:03;2.03;;;1.80;;
35245;SDS011;21379;50.962;6.960;2022-08-25T11:28:38;2.15;;;1.73;;
35245;SDS011;21379;50.962;6.960;2022-08-25T11:31:12;5.75;;;1.73;;
35245;SDS011;21379;50.962;6.960;2022-08-25T11:33:41;2.53;;;1.60;;
35245;SDS011;21379;50.962;6.960;2022-08-25T11:36:11;2.13;;;1.67;;
35245;SDS011;21379;50.962;6.960;2022-08-25T11:38:45;1.65;;;1.55;;
35245;SDS011;21379;50.962;6.960;2022-08-25T11:41:22;2.58;;;2.00;;
35245;SDS011;21379;50.962;6.960;2022-08-25T11:44:00;3.25;;;1.80;;
35245;SDS011;21379;50.962;6.960;2022-08-25T11:46:45;5.13;;;1.77;;
35245;SDS011;21379;50.962;6.960;2022-08-25T11:49:28;3.70;;;1.60;;
35245;SDS011;21379;50.962;6.960;2022-08-25T11:55:10;4.00;;;2.00;;
35245;SDS011;21379;50.962;6.960;2022-08-25T11:57:38;2.72;;;1.83;;
35245;SDS011;21379;50.962;6.960;2022-08-25T12:00:08;1.73;;;1.52;;
35245;SDS011;21379;50.962;6.960;2022-08-25T12:02:39;2.50;;;1.70;;
35245;SDS011;21379;50.962;6.960;2022-08-25T12:05:09;4.45;;;2.20;;
35245;SDS011;21379;50.962;6.960;2022-08-25T12:08:02;2.60;;;1.80;;
35245;SDS011;21379;50.962;6.960;2022-08-25T12:10:52;3.78;;;1.55;;
35245;SDS011;21379;50.962;6.960;2022-08-25T12:13:26;2.17;;;1.70;;
35245;SDS011;21379;50.962;6.960;2022-08-25T12:16:05;3.13;;;1.70;;
35245;SDS011;21379;50.962;6.960;2022-08-25T12:18:37;1.90;;;1.60;;
35245;SDS011;21379;50.962;6.960;2022-08-25T12:21:18;6.00;;;2.08;;
35245;SDS011;21379;50.962;6.960;2022-08-25T12:24:08;2.75;;;1.60;;
35245;SDS011;21379;50.962;6.960;2022-08-25T12:26:39;1.70;;;1.55;;
35245;SDS011;21379;50.962;6.960;2022-08-25T12:29:12;3.55;;;2.20;;
35245;SDS011;21379;50.962;6.960;2022-08-25T12:34:53;3.90;;;1.88;;
35245;SDS011;21379;50.962;6.960;2022-08-25T12:40:34;1.40;;;1.25;;
35245;SDS011;21379;50.962;6.960;2022-08-25T12:43:05;7.03;;;1.70;;
35245;SDS011;21379;50.962;6.960;2022-08-25T12:45:40;5.47;;;1.67;;
35245;SDS011;21379;50.962;6.960;2022-08-25T12:51:42;2.28;;;1.40;;
35245;SDS011;21379;50.962;6.960;2022-08-25T12:54:19;3.47;;;1.90;;
35245;SDS011;21379;50.962;6.960;2022-08-25T12:56:51;2.50;;;1.67;;
35245;SDS011;21379;50.962;6.960;2022-08-25T12:59:21;3.33;;;1.50;;
35245;SDS011;21379;50.962;6.960;2022-08-25T13:05:02;4.00;;;1.75;;
35245;SDS011;21379;50.962;6.960;2022-08-25T13:07:45;2.53;;;1.55;;
35245;SDS011;21379;50.962;6.960;2022-08-25T13:10:39;3.57;;;2.30;;
35245;SDS011;21379;50.962;6.960;2022-08-25T13:13:12;3.03;;;1.98;;
35245;SDS011;21379;50.962;6.960;2022-08-25T13:15:45;4.85;;;2.28;;
35245;SDS011;21379;50.962;6.960;2022-08-25T13:18:24;2.78;;;2.00;;
35245;SDS011;21379;50.962;6.960;2022-08-25T13:20:54;3.03;;;1.92;;
35245;SDS011;21379;50.962;6.960;2022-08-25T13:23:28;2.85;;;1.75;;
35245;SDS011;21379;50.962;6.960;2022-08-25T13:25:57;2.35;;;1.60;;
35245;SDS011;21379;50.962;6.960;2022-08-25T13:28:26;2.85;;;2.08;;
35245;SDS011;21379;50.962;6.960;2022-08-25T13:31:00;2.50;;;1.70;;
35245;SDS011;21379;50.962;6.960;2022-08-25T13:33:29;2.30;;;1.80;;
35245;SDS011;21379;50.962;6.960;2022-08-25T13:35:57;1.33;;;1.23;;
35245;SDS011;21379;50.962;6.960;2022-08-25T13:38:44;2.67;;;1.88;;
35245;SDS011;21379;50.962;6.960;2022-08-25T13:41:18;1.77;;;1.55;;
35245;SDS011;21379;50.962;6.960;2022-08-25T13:43:47;2.28;;;1.60;;
35245;SDS011;21379;50.962;6.960;2022-08-25T13:46:17;5.82;;;1.63;;
35245;SDS011;21379;50.962;6.960;2022-08-25T13:48:45;2.72;;;1.42;;
35245;SDS011;21379;50.962;6.960;2022-08-25T13:51:17;1.95;;;1.65;;
35245;SDS011;21379;50.962;6.960;2022-08-25T13:53:52;2.50;;;1.92;;
35245;SDS011;21379;50.962;6.960;2022-08-25T13:56:26;2.08;;;1.60;;
35245;SDS011;21379;50.962;6.960;2022-08-25T13:58:55;2.33;;;1.52;;
35245;SDS011;21379;50.962;6.960;2022-08-25T14:01:25;5.47;;;1.70;;
35245;SDS011;21379;50.962;6.960;2022-08-25T14:03:55;3.85;;;1.88;;
35245;SDS011;21379;50.962;6.960;2022-08-25T14:06:24;2.78;;;2.05;;
35245;SDS011;21379;50.962;6.960;2022-08-25T14:09:07;2.25;;;1.42;;
35245;SDS011;21379;50.962;6.960;2022-08-25T14:11:43;6.63;;;1.83;;
35245;SDS011;21379;50.962;6.960;2022-08-25T14:14:12;2.78;;;1.92;;
35245;SDS011;21379;50.962;6.960;2022-08-25T14:16:58;2.05;;;1.25;;
35245;SDS011;21379;50.962;6.960;2022-08-25T14:19:28;3.17;;;1.70;;
35245;SDS011;21379;50.962;6.960;2022-08-25T14:21:56;2.05;;;1.58;;
35245;SDS011;21379;50.962;6.960;2022-08-25T14:24:26;3.88;;;1.50;;
35245;SDS011;21379;50.962;6.960;2022-08-25T14:26:59;2.50;;;1.60;;
35245;SDS011;21379;50.962;6.960;2022-08-25T14:29:26;3.85;;;1.40;;
35245;SDS011;21379;50.962;6.960;2022-08-25T14:31:54;3.92;;;1.50;;
35245;SDS011;21379;50.962;6.960;2022-08-25T14:34:23;2.00;;;1.38;;
35245;SDS011;21379;50.962;6.960;2022-08-25T14:36:52;2.72;;;1.90;;
35245;SDS011;21379;50.962;6.960;2022-08-25T14:39:19;2.35;;;1.50;;
35245;SDS011;21379;50.962;6.960;2022-08-25T14:41:46;2.00;;;1.40;;
35245;SDS011;21379;50.962;6.960;2022-08-25T14:44:16;2.38;;;1.73;;
35245;SDS011;21379;50.962;6.960;2022-08-25T14:46:44;3.30;;;1.60;;
35245;SDS011;21379;50.962;6.960;2022-08-25T14:49:16;2.63;;;1.70;;
35245;SDS011;21379;50.962;6.960;2022-08-25T14:51:44;2.55;;;1.55;;
35245;SDS011;21379;50.962;6.960;2022-08-25T14:54:13;7.15;;;1.88;;
35245;SDS011;21379;50.962;6.960;2022-08-25T14:56:42;2.33;;;1.75;;
35245;SDS011;21379;50.962;6.960;2022-08-25T14:59:10;2.65;;;1.67;;
35245;SDS011;21379;50.962;6.960;2022-08-25T15:01:38;2.60;;;1.50;;
35245;SDS011;21379;50.962;6.960;2022-08-25T15:04:07;1.55;;;1.45;;
35245;SDS011;21379;50.962;6.960;2022-08-25T15:06:37;1.75;;;1.42;;
35245;SDS011;21379;50.962;6.960;2022-08-25T15:09:05;2.17;;;1.40;;
35245;SDS011;21379;50.962;6.960;2022-08-25T15:11:32;2.45;;;1.65;;
35245;SDS011;21379;50.962;6.960;2022-08-25T15:14:00;1.92;;;1.40;;
35245;SDS011;21379;50.962;6.960;2022-08-25T15:16:28;3.55;;;1.83;;
35245;SDS011;21379;50.962;6.960;2022-08-25T15:18:58;2.88;;;1.88;;
35245;SDS011;21379;50.962;6.960;2022-08-25T15:21:26;2.17;;;1.48;;
35245;SDS011;21379;50.962;6.960;2022-08-25T15:23:53;2.28;;;1.73;;
35245;SDS011;21379;50.962;6.960;2022-08-25T15:26:20;2.30;;;1.55;;
35245;SDS011;21379;50.962;6.960;2022-08-25T15:28:49;1.85;;;1.30;;
35245;SDS011;21379;50.962;6.960;2022-08-25T15:31:17;2.03;;;1.60;;